Rollingen, Luxembourg
Current Conditions -  °F | °C
As of 6:20 PM on Wednesday 26 Nov 2014 (Local Time) from ELLX Reporting Station
Haze Haze  
Wind Chill: 38°   Ceiling: 100
Heat Index: 41°   Visibility: 0.68mi
Dew Point: 41°   Wind: 5mph
Humidity: 100%   Direction: 100°E
Pressure: 29.88"   Gusts: NA
Location:  49.74°N, 6.11°E
Report Text: ELLX 261720Z 10004KT 070V130 1100 R24/P1500N BR OVC001 05/05 Q1012 BECMG 0800 FG
Loading
Personal Weather Stations






























Interactive Weather Map New forecast layout! Learn more

10-Day Weather Forecast

Advertisements
Track Severe Weather on mobile